Time;durP1;ratioP1;P1;durP2;ratioP2;P2;SDS_P1;SDS_P2;PMS_P1;PMS_P2;Temp;Humidity;BMP_temperature;BMP_pressure;BME280_temperature;BME280_humidity;BME280_pressure;Samples;Min_cycle;Max_cycle;Signal;HPM_P1;HPM_P2
2021/04/04 00:00:11;;;;;;;3.57;2.50;;;;;;;;;;5117952;28;20224;-75
2021/04/04 00:02:38;;;;;;;4.10;2.23;;;;;;;;;;5117881;28;20208;-74
2021/04/04 00:05:07;;;;;;;4.77;2.27;;;;;;;;;;5118833;28;20284;-75
2021/04/04 00:07:38;;;;;;;5.00;2.33;;;;;;;;;;5122443;28;20197;-75
2021/04/04 00:10:05;;;;;;;5.07;1.93;;;;;;;;;;5122426;28;20760;-75
2021/04/04 00:12:32;;;;;;;4.47;2.10;;;;;;;;;;5121931;28;20295;-74
2021/04/04 00:14:59;;;;;;;3.10;2.13;;;;;;;;;;5122416;28;20259;-75
2021/04/04 00:17:27;;;;;;;2.43;2.20;;;;;;;;;;5122239;28;20231;-74
2021/04/04 00:19:54;;;;;;;2.47;1.97;;;;;;;;;;5121831;28;20242;-74
2021/04/04 00:22:21;;;;;;;2.10;1.97;;;;;;;;;;5121870;28;20231;-74
2021/04/04 00:24:48;;;;;;;3.90;2.07;;;;;;;;;;5121803;28;20300;-74
2021/04/04 00:27:15;;;;;;;3.00;2.70;;;;;;;;;;5122535;28;20209;-74
2021/04/04 00:29:42;;;;;;;4.00;2.27;;;;;;;;;;5122003;28;20236;-74
2021/04/04 00:32:09;;;;;;;3.70;2.37;;;;;;;;;;5121974;28;20233;-74
2021/04/04 00:34:36;;;;;;;3.20;2.40;;;;;;;;;;5121294;28;20221;-74
2021/04/04 00:37:03;;;;;;;3.00;2.20;;;;;;;;;;5121463;28;20311;-75
2021/04/04 00:39:31;;;;;;;5.00;2.27;;;;;;;;;;5121932;28;20287;-75
2021/04/04 00:41:58;;;;;;;4.87;2.13;;;;;;;;;;5121973;28;20292;-75
2021/04/04 00:44:25;;;;;;;2.07;1.97;;;;;;;;;;5121714;28;20309;-75
2021/04/04 00:46:52;;;;;;;2.73;2.40;;;;;;;;;;5121634;28;20670;-74
2021/04/04 00:49:19;;;;;;;3.60;2.03;;;;;;;;;;5121705;28;20201;-74
2021/04/04 00:51:46;;;;;;;2.60;2.00;;;;;;;;;;5121300;28;20287;-74
2021/04/04 00:54:13;;;;;;;2.90;2.03;;;;;;;;;;5121321;27;20239;-74
2021/04/04 00:56:41;;;;;;;2.80;2.20;;;;;;;;;;5121121;28;20227;-74
2021/04/04 00:59:09;;;;;;;2.50;2.27;;;;;;;;;;5121169;28;20564;-74
2021/04/04 01:01:36;;;;;;;2.37;2.07;;;;;;;;;;5121169;28;20379;-74
2021/04/04 01:04:03;;;;;;;5.07;2.60;;;;;;;;;;5120975;28;20295;-74
2021/04/04 01:06:30;;;;;;;2.87;1.97;;;;;;;;;;5121090;28;20240;-75
2021/04/04 01:08:58;;;;;;;4.23;2.20;;;;;;;;;;5121005;28;20637;-74
2021/04/04 01:11:30;;;;;;;3.50;2.37;;;;;;;;;;5120896;28;20237;-75
2021/04/04 01:14:02;;;;;;;4.00;2.40;;;;;;;;;;5120835;28;20236;-74
2021/04/04 01:16:31;;;;;;;4.37;2.23;;;;;;;;;;5121074;28;20274;-74
2021/04/04 01:18:59;;;;;;;1.93;1.83;;;;;;;;;;5120820;28;20274;-74
2021/04/04 01:21:29;;;;;;;2.40;1.90;;;;;;;;;;5120520;27;20307;-74
2021/04/04 01:24:11;;;;;;;3.13;2.20;;;;;;;;;;5120721;27;20236;-74
2021/04/04 01:26:44;;;;;;;2.20;1.90;;;;;;;;;;5120811;28;20248;-73
2021/04/04 01:29:14;;;;;;;3.93;2.40;;;;;;;;;;5120838;28;20244;-74
2021/04/04 01:31:41;;;;;;;7.07;2.50;;;;;;;;;;5120650;28;20240;-73
2021/04/04 01:34:09;;;;;;;3.80;2.13;;;;;;;;;;5120667;28;20269;-74
2021/04/04 01:36:37;;;;;;;3.90;2.23;;;;;;;;;;5120169;28;20288;-74
2021/04/04 01:39:07;;;;;;;5.50;2.23;;;;;;;;;;5120871;28;20284;-74
2021/04/04 01:41:36;;;;;;;3.60;2.07;;;;;;;;;;5120644;28;20282;-73
2021/04/04 01:44:04;;;;;;;4.13;2.27;;;;;;;;;;5120575;28;20284;-74
2021/04/04 01:46:33;;;;;;;6.37;2.07;;;;;;;;;;5120494;28;20288;-74
2021/04/04 01:49:00;;;;;;;3.83;2.07;;;;;;;;;;5120220;28;20606;-74
2021/04/04 01:51:28;;;;;;;2.73;1.93;;;;;;;;;;5120308;28;20752;-74
2021/04/04 01:53:56;;;;;;;4.50;2.00;;;;;;;;;;5120357;28;20209;-74
2021/04/04 01:56:23;;;;;;;2.23;2.03;;;;;;;;;;5120110;28;20256;-74
2021/04/04 01:58:50;;;;;;;4.23;2.13;;;;;;;;;;5120213;28;20578;-73
2021/04/04 02:01:17;;;;;;;2.70;2.07;;;;;;;;;;5120178;28;20257;-74
2021/04/04 02:03:46;;;;;;;4.87;1.80;;;;;;;;;;5120183;28;20268;-73
2021/04/04 02:06:13;;;;;;;2.63;1.83;;;;;;;;;;5120024;28;20225;-74
2021/04/04 02:08:40;;;;;;;4.23;2.20;;;;;;;;;;5119962;28;20220;-74
2021/04/04 02:11:08;;;;;;;2.43;2.23;;;;;;;;;;5119755;28;20687;-74
2021/04/04 02:13:35;;;;;;;3.97;2.07;;;;;;;;;;5119912;27;20215;-74
2021/04/04 02:16:02;;;;;;;2.07;1.83;;;;;;;;;;5119624;28;20253;-74
2021/04/04 02:18:29;;;;;;;5.10;2.40;;;;;;;;;;5119919;28;20208;-74
2021/04/04 02:20:59;;;;;;;4.00;2.27;;;;;;;;;;5119733;28;20239;-74
2021/04/04 02:23:27;;;;;;;3.47;2.03;;;;;;;;;;5119421;28;20361;-74
2021/04/04 02:25:54;;;;;;;2.77;2.30;;;;;;;;;;5119503;28;20225;-74
2021/04/04 02:28:21;;;;;;;3.27;1.97;;;;;;;;;;5118878;28;20334;-74
2021/04/04 02:30:48;;;;;;;1.97;1.73;;;;;;;;;;5119773;28;20255;-74
2021/04/04 02:33:19;;;;;;;2.60;2.10;;;;;;;;;;5119473;28;20258;-74
2021/04/04 02:35:49;;;;;;;2.53;1.90;;;;;;;;;;5119148;28;20252;-73
2021/04/04 02:38:22;;;;;;;8.60;2.00;;;;;;;;;;5119123;28;20312;-74
2021/04/04 02:40:49;;;;;;;2.97;1.97;;;;;;;;;;5119482;28;20240;-74
2021/04/04 02:43:17;;;;;;;3.27;1.70;;;;;;;;;;5119360;28;20208;-74
2021/04/04 02:45:44;;;;;;;2.90;1.90;;;;;;;;;;5119075;28;20727;-74
2021/04/04 02:48:15;;;;;;;3.63;1.67;;;;;;;;;;5119459;28;20236;-74
2021/04/04 02:50:42;;;;;;;3.37;2.10;;;;;;;;;;5119077;28;20209;-73
2021/04/04 02:53:12;;;;;;;2.53;1.90;;;;;;;;;;5119342;28;20282;-74
2021/04/04 02:55:41;;;;;;;2.77;1.90;;;;;;;;;;5118950;28;20252;-74
2021/04/04 02:58:09;;;;;;;2.97;2.10;;;;;;;;;;5119119;28;20260;-74
2021/04/04 03:00:37;;;;;;;2.13;1.83;;;;;;;;;;5118832;28;20259;-74
2021/04/04 03:03:06;;;;;;;3.43;2.20;;;;;;;;;;5119124;28;20288;-74
2021/04/04 03:05:33;;;;;;;3.33;1.90;;;;;;;;;;5118593;28;20320;-74
2021/04/04 03:08:01;;;;;;;4.30;2.43;;;;;;;;;;5119023;28;20239;-73
2021/04/04 03:10:29;;;;;;;4.97;1.87;;;;;;;;;;5118688;28;20735;-74
2021/04/04 03:12:57;;;;;;;3.47;2.33;;;;;;;;;;5118511;28;20644;-74
2021/04/04 03:15:25;;;;;;;3.80;2.07;;;;;;;;;;5118436;28;20227;-74
2021/04/04 03:17:53;;;;;;;4.43;1.93;;;;;;;;;;5118618;28;20288;-73
2021/04/04 03:20:20;;;;;;;4.10;1.90;;;;;;;;;;5118341;28;20212;-74
2021/04/04 03:22:48;;;;;;;2.27;2.03;;;;;;;;;;5118313;28;20651;-73
2021/04/04 03:25:16;;;;;;;2.87;1.90;;;;;;;;;;5118279;28;20761;-74
2021/04/04 03:27:44;;;;;;;2.87;1.70;;;;;;;;;;5118376;28;20258;-74
2021/04/04 03:30:35;;;;;;;4.10;1.97;;;;;;;;;;5118671;28;20292;-74
2021/04/04 03:33:01;;;;;;;3.03;2.10;;;;;;;;;;5118199;28;20268;-74
2021/04/04 03:35:29;;;;;;;2.37;2.00;;;;;;;;;;5118100;28;20288;-73
2021/04/04 03:37:57;;;;;;;3.77;2.10;;;;;;;;;;5118330;28;20225;-74
2021/04/04 03:40:24;;;;;;;2.57;2.00;;;;;;;;;;5117728;28;20211;-74
2021/04/04 03:42:52;;;;;;;6.40;2.00;;;;;;;;;;5118066;28;20660;-74
2021/04/04 03:45:20;;;;;;;3.07;1.90;;;;;;;;;;5118353;28;20260;-73
2021/04/04 03:47:48;;;;;;;4.70;2.03;;;;;;;;;;5118101;28;20651;-74
2021/04/04 03:50:17;;;;;;;5.50;2.60;;;;;;;;;;5118122;28;20268;-74
2021/04/04 03:52:45;;;;;;;3.17;2.23;;;;;;;;;;5118348;28;20208;-74
2021/04/04 03:55:14;;;;;;;5.00;2.03;;;;;;;;;;5107459;27;20223;-74
2021/04/04 03:57:43;;;;;;;3.40;2.27;;;;;;;;;;5115808;28;20288;-74
2021/04/04 04:00:11;;;;;;;2.20;1.77;;;;;;;;;;5118390;28;20260;-74
2021/04/04 04:02:41;;;;;;;2.67;2.03;;;;;;;;;;5118220;28;20295;-74
2021/04/04 04:05:09;;;;;;;2.90;2.40;;;;;;;;;;5117755;28;20763;-75
2021/04/04 04:07:36;;;;;;;4.77;2.23;;;;;;;;;;5118161;28;20283;-74
2021/04/04 04:10:04;;;;;;;5.30;2.17;;;;;;;;;;5118298;28;20295;-74
2021/04/04 04:12:32;;;;;;;2.30;2.10;;;;;;;;;;5117977;28;20288;-73
2021/04/04 04:14:59;;;;;;;3.93;2.27;;;;;;;;;;5118029;28;20743;-74
2021/04/04 04:17:26;;;;;;;2.77;1.70;;;;;;;;;;5117967;28;20229;-74
2021/04/04 04:19:54;;;;;;;2.87;2.00;;;;;;;;;;5117490;28;20641;-75
2021/04/04 04:22:22;;;;;;;3.10;2.10;;;;;;;;;;5117882;28;20239;-73
2021/04/04 04:24:50;;;;;;;3.57;2.30;;;;;;;;;;5117860;28;20260;-74
2021/04/04 04:27:17;;;;;;;5.03;2.40;;;;;;;;;;5117938;28;20205;-74
2021/04/04 04:29:45;;;;;;;7.83;2.33;;;;;;;;;;5117874;28;20656;-74
2021/04/04 04:32:13;;;;;;;3.57;2.23;;;;;;;;;;5117873;28;20288;-74
2021/04/04 04:34:41;;;;;;;4.10;2.00;;;;;;;;;;5117229;28;20319;-74
2021/04/04 04:37:09;;;;;;;2.27;2.07;;;;;;;;;;5117816;28;20315;-75
2021/04/04 04:39:37;;;;;;;2.80;2.17;;;;;;;;;;5117836;28;20236;-74
2021/04/04 04:42:05;;;;;;;6.00;2.63;;;;;;;;;;5117700;28;20228;-74
2021/04/04 04:44:34;;;;;;;3.10;2.50;;;;;;;;;;5117632;27;20242;-74
2021/04/04 04:47:01;;;;;;;7.33;2.43;;;;;;;;;;5117663;28;20280;-73
2021/04/04 04:49:28;;;;;;;2.10;1.90;;;;;;;;;;5117289;28;20209;-74
2021/04/04 04:51:55;;;;;;;4.90;2.37;;;;;;;;;;5119923;28;20287;-74
2021/04/04 04:54:23;;;;;;;3.40;2.17;;;;;;;;;;5121274;28;20791;-73
2021/04/04 04:56:50;;;;;;;2.00;1.80;;;;;;;;;;5121384;28;20267;-74
2021/04/04 04:59:17;;;;;;;3.50;2.20;;;;;;;;;;5121433;28;20286;-74
2021/04/04 05:01:46;;;;;;;4.43;2.50;;;;;;;;;;5121495;28;20291;-74
2021/04/04 05:04:14;;;;;;;4.07;2.00;;;;;;;;;;5121046;28;20211;-74
2021/04/04 05:06:42;;;;;;;2.70;1.80;;;;;;;;;;5120799;28;20283;-74
2021/04/04 05:09:11;;;;;;;2.73;2.07;;;;;;;;;;5121029;28;20208;-74
2021/04/04 05:11:40;;;;;;;6.17;2.17;;;;;;;;;;5120929;28;20204;-74
2021/04/04 05:14:09;;;;;;;2.57;2.00;;;;;;;;;;5121140;28;20239;-74
2021/04/04 05:16:36;;;;;;;3.10;2.27;;;;;;;;;;5121013;28;20263;-74
2021/04/04 05:19:06;;;;;;;2.80;2.00;;;;;;;;;;5121181;28;20245;-74
2021/04/04 05:21:33;;;;;;;2.47;2.00;;;;;;;;;;5120379;28;20653;-74
2021/04/04 05:24:01;;;;;;;2.87;2.00;;;;;;;;;;5120567;28;20247;-74
2021/04/04 05:26:33;;;;;;;2.80;2.10;;;;;;;;;;5120693;28;20230;-74
2021/04/04 05:29:02;;;;;;;3.67;2.40;;;;;;;;;;5120743;28;20243;-74
2021/04/04 05:31:29;;;;;;;3.60;2.10;;;;;;;;;;5120868;28;20236;-73
2021/04/04 05:33:56;;;;;;;2.33;2.00;;;;;;;;;;5120529;28;20244;-74
2021/04/04 05:36:23;;;;;;;2.90;1.97;;;;;;;;;;5120126;28;20247;-74
2021/04/04 05:38:54;;;;;;;1.77;1.63;;;;;;;;;;5120748;28;20311;-74
2021/04/04 05:41:23;;;;;;;5.53;2.10;;;;;;;;;;5120592;28;20748;-74
2021/04/04 05:43:51;;;;;;;3.47;2.10;;;;;;;;;;5120426;28;20287;-74
2021/04/04 05:46:25;;;;;;;1.93;1.60;;;;;;;;;;5120445;28;20297;-74
2021/04/04 05:48:57;;;;;;;4.40;2.27;;;;;;;;;;5120576;28;20205;-74
2021/04/04 05:51:30;;;;;;;2.67;2.30;;;;;;;;;;5119982;28;20240;-74
2021/04/04 05:54:12;;;;;;;6.63;2.57;;;;;;;;;;5120333;28;20208;-74
2021/04/04 05:56:41;;;;;;;5.20;2.13;;;;;;;;;;5117868;28;20201;-74
2021/04/04 05:59:11;;;;;;;4.93;2.20;;;;;;;;;;5120362;28;20236;-74
2021/04/04 06:01:57;;;;;;;2.13;1.70;;;;;;;;;;5120449;28;20268;-74
2021/04/04 06:04:51;;;;;;;2.43;1.90;;;;;;;;;;5119522;28;20767;-75
2021/04/04 06:07:41;;;;;;;4.57;2.10;;;;;;;;;;5084133;28;20220;-75
2021/04/04 06:10:09;;;;;;;2.10;1.63;;;;;;;;;;5120422;28;20236;-74
2021/04/04 06:12:40;;;;;;;5.83;2.50;;;;;;;;;;5120321;27;20307;-74
2021/04/04 06:15:08;;;;;;;1.97;1.70;;;;;;;;;;5119816;28;20213;-74
2021/04/04 06:17:37;;;;;;;4.70;1.83;;;;;;;;;;5119722;28;20738;-74
2021/04/04 06:20:20;;;;;;;3.73;2.17;;;;;;;;;;5119679;28;20207;-75
2021/04/04 06:22:53;;;;;;;3.70;2.00;;;;;;;;;;5119649;28;20663;-74
2021/04/04 06:25:26;;;;;;;2.00;1.67;;;;;;;;;;5119534;28;20257;-74
2021/04/04 06:27:56;;;;;;;3.13;2.53;;;;;;;;;;5119624;28;20288;-74
2021/04/04 06:33:08;;;;;;;4.53;2.30;;;;;;;;;;5119219;28;20292;-74
2021/04/04 06:35:38;;;;;;;4.53;2.10;;;;;;;;;;5117933;28;20734;-74
2021/04/04 06:38:18;;;;;;;3.43;2.43;;;;;;;;;;5120745;27;20219;-74
2021/04/04 06:40:49;;;;;;;2.57;1.93;;;;;;;;;;5119543;27;20221;-73
2021/04/04 06:43:20;;;;;;;3.23;1.90;;;;;;;;;;5119118;28;20233;-73
2021/04/04 06:45:53;;;;;;;5.27;2.20;;;;;;;;;;5119643;27;20227;-74
2021/04/04 06:48:27;;;;;;;3.13;2.30;;;;;;;;;;5118297;28;20664;-74
2021/04/04 06:50:58;;;;;;;3.13;1.97;;;;;;;;;;5120150;27;20207;-74
2021/04/04 06:53:32;;;;;;;3.20;2.13;;;;;;;;;;5117776;28;20659;-74
2021/04/04 06:56:04;;;;;;;3.37;2.40;;;;;;;;;;5115302;28;20303;-73
2021/04/04 06:58:39;;;;;;;3.77;2.07;;;;;;;;;;5117574;27;20251;-75
2021/04/04 07:01:10;;;;;;;6.07;1.90;;;;;;;;;;5117707;28;20283;-75
2021/04/04 07:03:44;;;;;;;3.00;2.03;;;;;;;;;;5115401;28;20264;-74
2021/04/04 07:06:21;;;;;;;2.90;2.20;;;;;;;;;;5117593;27;20280;-74
2021/04/04 07:09:10;;;;;;;2.37;2.00;;;;;;;;;;5118369;27;20216;-74
2021/04/04 07:11:41;;;;;;;3.73;2.47;;;;;;;;;;5114223;27;20284;-74
2021/04/04 07:14:29;;;;;;;5.27;2.43;;;;;;;;;;5117219;28;20193;-75
2021/04/04 07:17:14;;;;;;;2.20;2.00;;;;;;;;;;5119604;27;20272;-75
2021/04/04 07:19:57;;;;;;;2.53;1.93;;;;;;;;;;5114777;28;20660;-75
2021/04/04 07:22:30;;;;;;;3.83;2.17;;;;;;;;;;5114923;28;20205;-75
2021/04/04 07:25:04;;;;;;;2.17;1.97;;;;;;;;;;5118661;27;20258;-75
2021/04/04 07:27:42;;;;;;;3.60;2.20;;;;;;;;;;5119625;27;20252;-73
2021/04/04 07:30:33;;;;;;;3.90;2.47;;;;;;;;;;5118440;27;20232;-75
2021/04/04 07:33:03;;;;;;;5.13;2.37;;;;;;;;;;5118005;27;20649;-75
2021/04/04 07:35:34;;;;;;;2.97;2.17;;;;;;;;;;5118502;27;20751;-75
2021/04/04 07:38:07;;;;;;;3.00;2.07;;;;;;;;;;5116271;27;20216;-74
2021/04/04 07:40:37;;;;;;;3.27;2.10;;;;;;;;;;5119021;27;20197;-75
2021/04/04 07:43:06;;;;;;;5.40;2.40;;;;;;;;;;5120160;27;20464;-74
2021/04/04 07:45:36;;;;;;;4.30;2.40;;;;;;;;;;5117904;28;20303;-74
2021/04/04 07:48:12;;;;;;;3.60;2.60;;;;;;;;;;5120472;27;20525;-73
2021/04/04 07:50:46;;;;;;;2.97;2.30;;;;;;;;;;5115895;28;20196;-78
2021/04/04 07:53:18;;;;;;;4.80;2.20;;;;;;;;;;5118146;27;20616;-74
2021/04/04 07:55:46;;;;;;;4.70;2.23;;;;;;;;;;5117659;28;20288;-74
2021/04/04 07:58:17;;;;;;;2.53;2.30;;;;;;;;;;5126735;27;20586;-74
2021/04/04 08:00:47;;;;;;;2.80;2.47;;;;;;;;;;5110760;27;20205;-74
2021/04/04 08:03:16;;;;;;;3.17;2.10;;;;;;;;;;5105964;28;20196;-74
2021/04/04 08:05:45;;;;;;;3.33;2.50;;;;;;;;;;5105312;28;20695;-74
2021/04/04 08:08:14;;;;;;;3.10;2.50;;;;;;;;;;5105632;28;20570;-74
2021/04/04 08:10:48;;;;;;;4.43;2.37;;;;;;;;;;5103327;28;20201;-77
2021/04/04 08:13:20;;;;;;;3.97;2.20;;;;;;;;;;5102893;28;20201;-74
2021/04/04 08:15:53;;;;;;;3.27;2.50;;;;;;;;;;5119193;28;20240;-78
2021/04/04 08:18:20;;;;;;;7.27;2.83;;;;;;;;;;5106041;28;20217;-76
2021/04/04 08:20:48;;;;;;;2.90;2.30;;;;;;;;;;5103496;28;20331;-77
2021/04/04 08:23:21;;;;;;;3.73;2.90;;;;;;;;;;5105334;28;20224;-80
2021/04/04 08:25:50;;;;;;;5.50;2.40;;;;;;;;;;5105890;28;20308;-77
2021/04/04 08:28:23;;;;;;;3.67;2.80;;;;;;;;;;5107760;28;20235;-75
2021/04/04 08:30:53;;;;;;;7.20;3.07;;;;;;;;;;5109944;28;20276;-74
2021/04/04 08:33:22;;;;;;;5.17;3.00;;;;;;;;;;5111381;28;20288;-76
2021/04/04 08:35:51;;;;;;;6.20;2.70;;;;;;;;;;5115888;28;20333;-76
2021/04/04 08:38:19;;;;;;;4.20;2.10;;;;;;;;;;5121660;28;20288;-77
2021/04/04 08:40:48;;;;;;;4.40;2.23;;;;;;;;;;5122104;27;20686;-77
2021/04/04 08:43:16;;;;;;;4.57;3.10;;;;;;;;;;5122086;28;20205;-77
2021/04/04 08:45:48;;;;;;;4.70;3.20;;;;;;;;;;5121928;28;20755;-77
2021/04/04 08:48:16;;;;;;;4.30;2.53;;;;;;;;;;5121783;28;20208;-77
2021/04/04 08:50:43;;;;;;;3.37;2.30;;;;;;;;;;5116944;28;20702;-76
2021/04/04 08:53:19;;;;;;;5.10;2.50;;;;;;;;;;5108371;28;20286;-79
2021/04/04 08:55:47;;;;;;;3.77;2.63;;;;;;;;;;5109678;28;20769;-77
2021/04/04 08:58:16;;;;;;;4.57;2.50;;;;;;;;;;5106031;28;20680;-76
2021/04/04 09:00:45;;;;;;;4.03;2.20;;;;;;;;;;5117379;28;20235;-76
2021/04/04 09:03:18;;;;;;;6.67;2.87;;;;;;;;;;5122393;27;20236;-76
2021/04/04 09:05:45;;;;;;;4.47;2.60;;;;;;;;;;5121190;28;20231;-76
2021/04/04 09:08:13;;;;;;;4.80;2.70;;;;;;;;;;5120956;27;20283;-76
2021/04/04 09:10:41;;;;;;;2.77;2.37;;;;;;;;;;5108972;28;20193;-76
2021/04/04 09:13:08;;;;;;;5.87;2.73;;;;;;;;;;5108653;28;20227;-76
2021/04/04 09:15:43;;;;;;;3.97;2.63;;;;;;;;;;5106311;28;20259;-76
2021/04/04 09:18:11;;;;;;;3.07;2.40;;;;;;;;;;5107532;28;20225;-76
2021/04/04 09:20:39;;;;;;;6.30;2.60;;;;;;;;;;5107142;28;20225;-76
2021/04/04 09:23:06;;;;;;;4.53;2.73;;;;;;;;;;5109104;28;20308;-77
2021/04/04 09:25:35;;;;;;;3.47;2.80;;;;;;;;;;5107531;28;20780;-76
2021/04/04 09:28:06;;;;;;;4.53;2.47;;;;;;;;;;5108273;28;20197;-76
2021/04/04 09:30:38;;;;;;;4.37;2.63;;;;;;;;;;5107760;28;20673;-77
2021/04/04 09:33:07;;;;;;;4.17;2.33;;;;;;;;;;5109102;28;20198;-77
2021/04/04 09:35:35;;;;;;;6.83;3.80;;;;;;;;;;5109145;28;20309;-75
2021/04/04 09:38:03;;;;;;;17.17;8.40;;;;;;;;;;5105504;28;20735;-76
2021/04/04 09:40:31;;;;;;;13.20;6.77;;;;;;;;;;5108220;28;20284;-75
2021/04/04 09:43:05;;;;;;;6.90;3.73;;;;;;;;;;5107977;28;20537;-75
2021/04/04 09:45:32;;;;;;;10.90;4.53;;;;;;;;;;5108806;28;20593;-73
2021/04/04 09:48:15;;;;;;;5.93;3.20;;;;;;;;;;5107105;28;20276;-77
2021/04/04 09:50:43;;;;;;;3.87;2.73;;;;;;;;;;5107398;28;20782;-78
2021/04/04 09:53:10;;;;;;;4.00;3.13;;;;;;;;;;5120872;28;20268;-78
2021/04/04 09:55:44;;;;;;;2.97;2.67;;;;;;;;;;5120193;28;20277;-78
2021/04/04 09:58:11;;;;;;;2.17;2.07;;;;;;;;;;5120248;28;20316;-78
2021/04/04 10:00:43;;;;;;;4.53;2.80;;;;;;;;;;5110583;28;20261;-76
2021/04/04 10:03:12;;;;;;;3.33;2.50;;;;;;;;;;5110141;28;20225;-77
2021/04/04 10:05:40;;;;;;;4.67;2.10;;;;;;;;;;5106126;28;20252;-78
2021/04/04 10:08:09;;;;;;;5.47;2.70;;;;;;;;;;5112084;28;20639;-74
2021/04/04 10:10:37;;;;;;;6.13;2.23;;;;;;;;;;5107837;28;20198;-75
2021/04/04 10:13:04;;;;;;;3.73;3.03;;;;;;;;;;5116475;28;20259;-75
2021/04/04 10:15:41;;;;;;;2.80;2.33;;;;;;;;;;5120031;28;20259;-75
2021/04/04 10:18:08;;;;;;;2.83;2.57;;;;;;;;;;5119954;28;20228;-75
2021/04/04 10:20:37;;;;;;;5.30;2.50;;;;;;;;;;5116053;28;20209;-75
2021/04/04 10:23:04;;;;;;;4.80;2.50;;;;;;;;;;5116631;27;20240;-76
2021/04/04 10:25:32;;;;;;;3.33;2.40;;;;;;;;;;5140181;27;20307;-79
2021/04/04 10:28:02;;;;;;;3.40;2.33;;;;;;;;;;5126356;27;20287;-76
2021/04/04 10:30:30;;;;;;;4.50;2.47;;;;;;;;;;5106749;28;20262;-78
2021/04/04 10:33:16;;;;;;;3.60;2.13;;;;;;;;;;5107707;28;20232;-77
2021/04/04 10:35:43;;;;;;;4.93;2.43;;;;;;;;;;5108556;28;20312;-77
2021/04/04 10:38:12;;;;;;;9.93;4.70;;;;;;;;;;5104610;28;20594;-77
2021/04/04 10:40:43;;;;;;;7.87;3.43;;;;;;;;;;5110091;28;20261;-77
2021/04/04 10:43:10;;;;;;;17.33;7.50;;;;;;;;;;5105552;28;20555;-77
2021/04/04 10:45:53;;;;;;;6.43;3.83;;;;;;;;;;5107526;28;20281;-77
2021/04/04 10:48:21;;;;;;;14.70;6.87;;;;;;;;;;5104966;28;20221;-76
2021/04/04 10:50:48;;;;;;;23.97;9.00;;;;;;;;;;5106360;28;20687;-77
2021/04/04 10:53:15;;;;;;;6.30;3.83;;;;;;;;;;5104184;28;20244;-77
2021/04/04 10:55:44;;;;;;;4.73;3.10;;;;;;;;;;5108531;28;20243;-78
2021/04/04 10:58:11;;;;;;;3.77;2.90;;;;;;;;;;5106823;28;20271;-80
2021/04/04 11:00:39;;;;;;;3.83;2.37;;;;;;;;;;5113428;27;20193;-79
2021/04/04 11:03:06;;;;;;;5.13;3.60;;;;;;;;;;5107385;28;20204;-78
2021/04/04 11:05:34;;;;;;;6.40;2.77;;;;;;;;;;5111675;28;20738;-79
2021/04/04 11:08:02;;;;;;;4.43;2.80;;;;;;;;;;5101155;28;20197;-78
2021/04/04 11:10:29;;;;;;;2.33;2.00;;;;;;;;;;5103918;28;20335;-78
2021/04/04 11:12:57;;;;;;;9.20;2.70;;;;;;;;;;5114847;27;20236;-77
2021/04/04 11:15:25;;;;;;;7.17;2.80;;;;;;;;;;5124251;27;20253;-78
2021/04/04 11:17:52;;;;;;;2.90;2.07;;;;;;;;;;5117690;28;20838;-77
2021/04/04 11:20:19;;;;;;;4.83;2.67;;;;;;;;;;5109432;28;20196;-77
2021/04/04 11:22:47;;;;;;;5.90;3.33;;;;;;;;;;5117133;28;20220;-79
2021/04/04 11:25:16;;;;;;;27.60;11.63;;;;;;;;;;5109561;28;20312;-77
2021/04/04 11:27:45;;;;;;;18.67;10.80;;;;;;;;;;5103629;28;20231;-76
2021/04/04 11:30:14;;;;;;;24.30;10.10;;;;;;;;;;5114761;28;20232;-73
2021/04/04 11:32:47;;;;;;;13.57;5.47;;;;;;;;;;5111008;28;20291;-70
2021/04/04 11:35:15;;;;;;;8.43;3.10;;;;;;;;;;5115185;28;20304;-72
2021/04/04 11:37:43;;;;;;;6.23;3.30;;;;;;;;;;5106508;28;20771;-77
2021/04/04 11:40:21;;;;;;;3.13;2.33;;;;;;;;;;5113088;28;20297;-78
2021/04/04 11:42:50;;;;;;;3.20;2.40;;;;;;;;;;5109060;28;20604;-78
2021/04/04 11:45:34;;;;;;;2.87;2.13;;;;;;;;;;5107758;28;20253;-77
2021/04/04 11:48:19;;;;;;;3.13;2.33;;;;;;;;;;5111057;28;20197;-77
2021/04/04 11:50:46;;;;;;;3.80;2.67;;;;;;;;;;5108640;28;21213;-78
2021/04/04 11:53:28;;;;;;;2.73;2.40;;;;;;;;;;5108234;28;20212;-77
2021/04/04 11:55:55;;;;;;;4.40;2.73;;;;;;;;;;5117761;27;20225;-77
2021/04/04 11:58:22;;;;;;;6.40;2.63;;;;;;;;;;5117300;28;20303;-78
2021/04/04 12:00:52;;;;;;;3.13;2.63;;;;;;;;;;5117862;28;20288;-77
2021/04/04 12:03:24;;;;;;;3.73;2.80;;;;;;;;;;5104801;28;20284;-77
2021/04/04 12:05:51;;;;;;;3.87;2.50;;;;;;;;;;5106803;28;20284;-77
2021/04/04 12:08:26;;;;;;;4.57;2.63;;;;;;;;;;5105345;28;20265;-79
2021/04/04 12:10:54;;;;;;;4.70;2.87;;;;;;;;;;5118836;28;20291;-77
2021/04/04 12:13:21;;;;;;;3.90;2.27;;;;;;;;;;5115882;28;20205;-77
2021/04/04 12:15:49;;;;;;;3.97;2.83;;;;;;;;;;5117397;28;20217;-77
2021/04/04 12:18:17;;;;;;;7.70;3.00;;;;;;;;;;5114987;28;20227;-76
2021/04/04 12:20:43;;;;;;;2.33;2.13;;;;;;;;;;5117430;28;20211;-76
2021/04/04 12:23:11;;;;;;;3.37;2.40;;;;;;;;;;5104999;28;20314;-76
2021/04/04 12:25:38;;;;;;;3.50;2.50;;;;;;;;;;5099719;28;20249;-77
2021/04/04 12:28:05;;;;;;;5.27;3.00;;;;;;;;;;5102230;28;20285;-77
2021/04/04 12:30:33;;;;;;;4.20;2.70;;;;;;;;;;5114450;28;20291;-76
2021/04/04 12:33:01;;;;;;;6.23;2.90;;;;;;;;;;5116677;28;20657;-76
2021/04/04 12:35:29;;;;;;;4.83;2.53;;;;;;;;;;5117235;28;20248;-76
2021/04/04 12:37:56;;;;;;;3.87;3.13;;;;;;;;;;5114733;28;20287;-77
2021/04/04 12:40:24;;;;;;;2.80;2.60;;;;;;;;;;5116628;28;20201;-77
2021/04/04 12:42:54;;;;;;;3.90;2.60;;;;;;;;;;5107482;28;20202;-78
2021/04/04 12:45:21;;;;;;;6.13;3.30;;;;;;;;;;5098870;28;20300;-78
2021/04/04 12:47:48;;;;;;;5.13;2.43;;;;;;;;;;5116662;28;20285;-77
2021/04/04 12:50:22;;;;;;;2.90;2.57;;;;;;;;;;5116580;28;20648;-79
2021/04/04 12:52:51;;;;;;;5.10;3.00;;;;;;;;;;5118243;28;20212;-79
2021/04/04 12:55:20;;;;;;;3.07;2.27;;;;;;;;;;5118264;28;20221;-77
2021/04/04 12:57:48;;;;;;;3.57;2.60;;;;;;;;;;5107889;28;20236;-77
2021/04/04 13:00:20;;;;;;;3.87;2.67;;;;;;;;;;5108901;28;20285;-77
2021/04/04 13:02:54;;;;;;;4.73;2.20;;;;;;;;;;5116624;28;20196;-78
2021/04/04 13:05:22;;;;;;;3.80;2.60;;;;;;;;;;5115148;28;20306;-79
2021/04/04 13:07:50;;;;;;;3.10;2.10;;;;;;;;;;5105547;28;20653;-78
2021/04/04 13:10:17;;;;;;;3.90;2.20;;;;;;;;;;5117270;28;20295;-79
2021/04/04 13:12:44;;;;;;;3.40;2.53;;;;;;;;;;5109969;28;20201;-79
2021/04/04 13:15:20;;;;;;;7.00;2.30;;;;;;;;;;5100237;28;20221;-79
2021/04/04 13:17:47;;;;;;;3.40;2.30;;;;;;;;;;5107773;28;20631;-79
2021/04/04 13:20:14;;;;;;;4.40;2.27;;;;;;;;;;5108166;28;20725;-78
2021/04/04 13:22:41;;;;;;;3.40;2.20;;;;;;;;;;5115787;28;20316;-77
2021/04/04 13:25:10;;;;;;;2.73;2.50;;;;;;;;;;5118792;28;20217;-76
2021/04/04 13:27:38;;;;;;;3.40;2.00;;;;;;;;;;5120851;28;20209;-77
2021/04/04 13:30:06;;;;;;;3.33;2.23;;;;;;;;;;5106705;28;20584;-78
2021/04/04 13:32:43;;;;;;;6.03;2.30;;;;;;;;;;5117664;28;20197;-77
2021/04/04 13:35:10;;;;;;;4.90;2.50;;;;;;;;;;5115902;28;20289;-77
2021/04/04 13:37:41;;;;;;;2.57;2.20;;;;;;;;;;5119097;28;20212;-77
2021/04/04 13:40:11;;;;;;;2.40;2.03;;;;;;;;;;5121075;28;20225;-78
2021/04/04 13:42:48;;;;;;;5.90;2.60;;;;;;;;;;5112741;28;20695;-77
2021/04/04 13:45:34;;;;;;;4.37;2.20;;;;;;;;;;5115671;28;20252;-78
2021/04/04 13:48:01;;;;;;;2.50;2.30;;;;;;;;;;5120001;28;20246;-78
2021/04/04 13:50:37;;;;;;;3.40;2.40;;;;;;;;;;5120227;28;20688;-78
2021/04/04 13:53:14;;;;;;;3.20;2.07;;;;;;;;;;5108350;28;20721;-78
2021/04/04 13:55:42;;;;;;;4.53;2.47;;;;;;;;;;5112145;28;20221;-76
2021/04/04 13:58:24;;;;;;;3.00;1.87;;;;;;;;;;5101663;28;20235;-76
2021/04/04 14:00:51;;;;;;;4.03;2.20;;;;;;;;;;5110511;28;20291;-77
2021/04/04 14:03:18;;;;;;;3.43;2.47;;;;;;;;;;5109986;28;20650;-77
2021/04/04 14:05:48;;;;;;;5.43;2.37;;;;;;;;;;5099314;28;20218;-78
2021/04/04 14:08:16;;;;;;;3.33;1.83;;;;;;;;;;5104111;28;20707;-77
2021/04/04 14:10:44;;;;;;;6.47;2.23;;;;;;;;;;5119313;28;20684;-78
2021/04/04 14:13:11;;;;;;;2.73;2.13;;;;;;;;;;5120155;28;20209;-78
2021/04/04 14:15:38;;;;;;;3.57;2.10;;;;;;;;;;5117664;28;20251;-77
2021/04/04 14:18:05;;;;;;;4.07;2.23;;;;;;;;;;5120086;28;20204;-76
2021/04/04 14:20:32;;;;;;;1.97;1.87;;;;;;;;;;5119357;28;20740;-78
2021/04/04 14:22:59;;;;;;;3.10;1.90;;;;;;;;;;5120517;28;20312;-78
2021/04/04 14:25:28;;;;;;;3.00;1.60;;;;;;;;;;5118114;28;20224;-78
2021/04/04 14:27:56;;;;;;;1.93;1.80;;;;;;;;;;5118580;28;20201;-78
2021/04/04 14:30:24;;;;;;;5.23;1.70;;;;;;;;;;5119941;28;20240;-77
2021/04/04 14:32:51;;;;;;;3.50;2.20;;;;;;;;;;5118525;28;20244;-78
2021/04/04 14:35:18;;;;;;;2.60;1.70;;;;;;;;;;5111118;28;20256;-76
2021/04/04 14:37:45;;;;;;;2.27;2.00;;;;;;;;;;5109733;28;20232;-78
2021/04/04 14:40:12;;;;;;;2.90;1.90;;;;;;;;;;5119619;27;20278;-76
2021/04/04 14:42:39;;;;;;;3.87;1.73;;;;;;;;;;5117485;28;20211;-77
2021/04/04 14:45:09;;;;;;;3.30;1.90;;;;;;;;;;5118614;28;20312;-78
2021/04/04 14:47:35;;;;;;;3.27;2.23;;;;;;;;;;5099178;28;20225;-77
2021/04/04 14:50:03;;;;;;;3.03;2.00;;;;;;;;;;5112933;28;20283;-78
2021/04/04 14:52:30;;;;;;;2.90;1.80;;;;;;;;;;5118407;28;20280;-78
2021/04/04 14:54:57;;;;;;;1.80;1.70;;;;;;;;;;5119316;28;20221;-78
2021/04/04 14:57:24;;;;;;;2.90;2.00;;;;;;;;;;5105852;27;20207;-77
2021/04/04 14:59:51;;;;;;;4.23;2.10;;;;;;;;;;5119691;28;20240;-78